createdAt,value
2018-09-17T00:01:24.545Z,25.29
2018-09-17T00:03:52.352Z,25.32
2018-09-17T00:06:20.208Z,25.30
2018-09-17T00:08:48.008Z,25.27
2018-09-17T00:11:15.757Z,25.31
2018-09-17T00:13:43.665Z,25.27
2018-09-17T00:17:06.172Z,25.31
2018-09-17T00:19:34.202Z,25.26
2018-09-17T00:22:02.348Z,25.28
2018-09-17T00:24:30.206Z,25.28
2018-09-17T00:26:57.889Z,25.27
2018-09-17T00:29:25.783Z,25.26
2018-09-17T00:31:53.717Z,25.26
2018-09-17T00:34:21.675Z,25.23
2018-09-17T00:36:49.731Z,25.27
2018-09-17T00:39:17.595Z,25.25
2018-09-17T00:41:45.693Z,25.21
2018-09-17T00:44:13.592Z,25.21
2018-09-17T00:46:41.442Z,25.22
2018-09-17T00:49:09.392Z,25.21
2018-09-17T00:51:37.198Z,25.19
2018-09-17T00:54:04.851Z,25.21
2018-09-17T00:56:32.688Z,25.23
2018-09-17T00:59:00.026Z,25.23
2018-09-17T01:01:28.516Z,25.20
2018-09-17T01:03:56.270Z,25.17
2018-09-17T01:06:24.442Z,25.17
2018-09-17T01:08:52.196Z,25.17
2018-09-17T01:11:19.960Z,25.15
2018-09-17T01:13:48.009Z,25.13
2018-09-17T01:16:15.848Z,25.16
2018-09-17T01:18:43.681Z,25.17
2018-09-17T01:21:11.589Z,25.14
2018-09-17T01:23:39.397Z,25.15
2018-09-17T01:26:07.215Z,25.18
2018-09-17T01:28:34.860Z,25.19
2018-09-17T01:31:02.760Z,25.17
2018-09-17T01:33:30.604Z,25.15
2018-09-17T01:35:58.623Z,25.12
2018-09-17T01:38:26.552Z,25.15
2018-09-17T01:40:54.412Z,25.16
2018-09-17T01:43:22.418Z,25.15
2018-09-17T01:45:50.381Z,25.11
2018-09-17T01:48:18.326Z,25.09
2018-09-17T01:50:46.032Z,25.14
2018-09-17T01:53:14.075Z,25.15
2018-09-17T01:55:41.869Z,25.15
2018-09-17T02:00:08.960Z,25.10
2018-09-17T02:02:36.718Z,25.11
2018-09-17T02:05:04.877Z,25.10
2018-09-17T02:07:32.765Z,25.03
2018-09-17T02:10:00.713Z,25.10
2018-09-17T02:12:28.523Z,25.07
2018-09-17T02:14:55.687Z,25.06
2018-09-17T02:17:23.549Z,25.08
2018-09-17T02:19:51.517Z,25.08
2018-09-17T02:22:19.542Z,25.08
2018-09-17T02:24:47.422Z,25.10
2018-09-17T02:27:15.305Z,25.05
2018-09-17T02:29:43.214Z,25.03
2018-09-17T02:32:10.936Z,25.06
2018-09-17T02:34:42.209Z,25.08
2018-09-17T02:37:09.809Z,25.06
2018-09-17T02:39:37.745Z,25.08
2018-09-17T02:42:05.602Z,25.08
2018-09-17T02:44:33.482Z,25.06
2018-09-17T02:47:01.570Z,24.98
2018-09-17T02:49:29.314Z,25.02
2018-09-17T02:51:57.073Z,25.07
2018-09-17T02:54:24.393Z,25.05
2018-09-17T02:56:52.178Z,25.03
2018-09-17T02:59:19.974Z,25.04
2018-09-17T03:01:47.936Z,25.03
2018-09-17T03:04:15.741Z,25.00
2018-09-17T03:06:43.593Z,24.99
2018-09-17T03:09:11.415Z,24.98
2018-09-17T03:11:39.227Z,24.97
2018-09-17T03:14:07.575Z,24.95
2018-09-17T03:16:51.718Z,24.95
2018-09-17T03:19:19.730Z,24.93
2018-09-17T03:21:47.590Z,24.95
2018-09-17T03:24:15.592Z,24.92
2018-09-17T03:26:43.793Z,24.92
2018-09-17T03:29:11.777Z,24.91
2018-09-17T03:31:39.626Z,24.95
2018-09-17T03:34:07.414Z,24.94
2018-09-17T03:36:35.394Z,24.96
2018-09-17T03:39:03.585Z,24.94
2018-09-17T03:41:31.489Z,24.93
2018-09-17T03:43:58.745Z,24.93
2018-09-17T03:46:26.781Z,24.93
2018-09-17T03:48:55.168Z,24.95
2018-09-17T03:51:22.960Z,24.93
2018-09-17T03:53:51.210Z,24.91
2018-09-17T03:56:19.167Z,24.90
2018-09-17T03:58:47.620Z,24.90
2018-09-17T04:01:14.933Z,24.89
2018-09-17T04:03:42.725Z,24.90
2018-09-17T04:06:10.749Z,24.89
2018-09-17T04:08:38.675Z,24.89
2018-09-17T04:11:06.567Z,24.88
2018-09-17T04:13:34.497Z,24.84
2018-09-17T04:16:02.215Z,24.88
2018-09-17T04:18:30.021Z,24.89
2018-09-17T04:20:58.486Z,24.88
2018-09-17T04:23:35.580Z,24.87
2018-09-17T04:26:04.841Z,24.86
2018-09-17T04:28:32.856Z,24.87
2018-09-17T04:31:00.624Z,24.85
2018-09-17T04:33:31.637Z,24.84
2018-09-17T04:35:59.409Z,24.85
2018-09-17T04:38:27.597Z,24.84
2018-09-17T04:40:55.510Z,24.87
2018-09-17T04:43:22.683Z,24.83
2018-09-17T04:45:50.576Z,24.82
2018-09-17T04:48:18.442Z,24.81
2018-09-17T04:50:45.985Z,24.77
2018-09-17T04:53:14.223Z,24.84
2018-09-17T04:55:41.921Z,24.82
2018-09-17T04:58:09.635Z,24.80
2018-09-17T05:00:37.802Z,24.83
2018-09-17T05:03:05.753Z,24.81
2018-09-17T05:05:33.613Z,24.80
2018-09-17T05:08:01.461Z,24.79
2018-09-17T05:10:29.362Z,24.85
2018-09-17T05:12:57.290Z,24.81
2018-09-17T05:15:25.337Z,24.78
2018-09-17T05:17:53.168Z,24.76
2018-09-17T05:20:21.224Z,24.82
2018-09-17T05:22:49.306Z,24.81
2018-09-17T05:25:17.028Z,24.87
2018-09-17T05:27:44.461Z,24.79
2018-09-17T05:30:12.202Z,24.76
2018-09-17T05:32:40.196Z,24.78
2018-09-17T05:35:08.041Z,24.78
2018-09-17T05:37:35.754Z,24.78
2018-09-17T05:40:03.637Z,24.77
2018-09-17T05:42:31.420Z,24.83
2018-09-17T05:44:59.192Z,24.71
2018-09-17T05:47:26.993Z,24.71
2018-09-17T05:49:54.669Z,24.74
2018-09-17T05:52:22.418Z,24.76
2018-09-17T05:54:50.493Z,24.73
2018-09-17T06:00:00.014Z,24.81
2018-09-17T06:02:27.786Z,24.90
2018-09-17T06:04:55.709Z,24.88
2018-09-17T06:07:23.006Z,24.88
2018-09-17T06:09:51.778Z,24.85
2018-09-17T06:12:19.886Z,24.86
2018-09-17T06:14:47.663Z,24.87
2018-09-17T06:17:15.684Z,24.89
2018-09-17T06:19:43.592Z,24.89
2018-09-17T06:22:11.516Z,24.89
2018-09-17T06:24:39.424Z,24.98
2018-09-17T06:27:07.195Z,25.00
2018-09-17T06:29:34.993Z,25.01
2018-09-17T06:32:02.869Z,25.01
2018-09-17T06:34:36.706Z,24.74
2018-09-17T06:37:04.558Z,24.55
2018-09-17T06:39:32.412Z,24.44
2018-09-17T06:42:00.489Z,24.41
2018-09-17T06:44:27.669Z,24.32
2018-09-17T06:46:55.481Z,24.27
2018-09-17T06:49:23.756Z,24.26
2018-09-17T06:52:51.313Z,24.27
2018-09-17T06:55:19.059Z,24.23
2018-09-17T06:57:46.946Z,24.25
2018-09-17T07:00:15.017Z,24.25
2018-09-17T07:02:42.878Z,24.27
2018-09-17T07:05:10.180Z,24.24
2018-09-17T07:07:38.002Z,24.29
2018-09-17T07:10:07.389Z,24.29
2018-09-17T07:12:35.365Z,24.28
2018-09-17T07:15:03.061Z,24.28
2018-09-17T07:17:30.901Z,24.28
2018-09-17T07:19:58.665Z,24.30
2018-09-17T07:22:26.782Z,24.36
2018-09-17T07:24:54.847Z,24.36
2018-09-17T07:27:22.726Z,24.36
2018-09-17T07:29:50.990Z,24.35
2018-09-17T07:32:19.021Z,24.32
2018-09-17T07:34:46.894Z,24.35
2018-09-17T07:37:14.786Z,24.38
2018-09-17T07:41:11.466Z,24.39
2018-09-17T07:43:39.207Z,24.46
2018-09-17T07:46:07.369Z,24.46
2018-09-17T07:48:35.203Z,24.48
2018-09-17T07:51:02.915Z,24.52
2018-09-17T07:53:31.542Z,24.56
2018-09-17T07:55:59.678Z,24.64
2018-09-17T07:58:27.516Z,24.61
2018-09-17T08:00:55.230Z,24.58
2018-09-17T08:03:23.005Z,24.57
2018-09-17T08:05:50.326Z,24.54
2018-09-17T08:08:18.037Z,24.55
2018-09-17T08:10:45.843Z,24.42
2018-09-17T08:13:13.761Z,24.61
2018-09-17T08:15:41.589Z,24.64
2018-09-17T08:18:09.312Z,24.68
2018-09-17T08:20:37.058Z,24.72
2018-09-17T08:23:05.012Z,24.72
2018-09-17T08:25:32.854Z,24.79
2018-09-17T08:28:00.057Z,24.81
2018-09-17T08:30:27.886Z,24.80
2018-09-17T08:32:55.674Z,24.81
2018-09-17T08:35:23.323Z,24.85
2018-09-17T08:37:51.045Z,24.82
2018-09-17T08:40:19.057Z,24.77
2018-09-17T08:42:46.937Z,24.89
2018-09-17T08:45:14.818Z,24.89
2018-09-17T08:47:42.622Z,24.89
2018-09-17T08:50:10.495Z,24.91
2018-09-17T08:52:38.233Z,24.90
2018-09-17T08:55:10.021Z,24.93
2018-09-17T08:57:39.415Z,24.96
2018-09-17T09:00:20.039Z,24.94
2018-09-17T09:02:50.916Z,25.00
2018-09-17T09:05:24.725Z,25.00
2018-09-17T09:07:53.990Z,25.01
2018-09-17T09:10:26.878Z,25.00
2018-09-17T09:13:01.621Z,25.06
2018-09-17T09:15:35.844Z,25.06
2018-09-17T09:18:04.161Z,25.00
2018-09-17T09:20:32.018Z,25.04
2018-09-17T09:22:59.961Z,25.09
2018-09-17T09:25:27.756Z,25.11
2018-09-17T09:27:55.597Z,25.04
2018-09-17T09:30:23.508Z,25.09
2018-09-17T09:32:50.897Z,25.12
2018-09-17T09:35:18.841Z,25.18
2018-09-17T09:37:46.674Z,25.16
2018-09-17T09:40:14.476Z,25.17
2018-09-17T09:42:43.254Z,25.18
2018-09-17T09:45:10.960Z,25.15
2018-09-17T09:47:38.805Z,25.15
2018-09-17T09:50:06.770Z,25.14
2018-09-17T09:52:34.624Z,25.16
2018-09-17T09:55:02.585Z,25.18
2018-09-17T09:57:29.772Z,25.14
2018-09-17T09:59:57.607Z,25.16
2018-09-17T10:02:35.217Z,25.24
2018-09-17T10:05:05.172Z,25.27
2018-09-17T10:07:32.990Z,25.18
2018-09-17T10:10:07.313Z,25.21
2018-09-17T10:12:40.809Z,25.29
2018-09-17T10:15:15.354Z,25.26
2018-09-17T10:17:49.441Z,25.27
2018-09-17T10:20:17.229Z,25.30
2018-09-17T10:22:44.978Z,25.33
2018-09-17T10:25:12.737Z,25.27
2018-09-17T10:27:40.589Z,25.34
2018-09-17T10:30:08.593Z,25.35
2018-09-17T10:32:35.916Z,25.30
2018-09-17T10:35:03.863Z,25.39
2018-09-17T10:37:31.730Z,25.31
2018-09-17T10:39:59.599Z,25.34
2018-09-17T10:42:27.509Z,25.34
2018-09-17T10:44:55.374Z,25.35
2018-09-17T10:47:22.593Z,25.34
2018-09-17T10:49:50.640Z,25.29
2018-09-17T10:52:18.584Z,25.42
2018-09-17T10:54:46.386Z,25.44
2018-09-17T10:57:14.415Z,25.41
2018-09-17T10:59:42.037Z,25.41
2018-09-17T11:02:09.902Z,25.38
2018-09-17T11:04:37.677Z,25.34
2018-09-17T11:07:05.590Z,25.39
2018-09-17T11:09:33.558Z,25.41
2018-09-17T11:12:00.701Z,25.41
2018-09-17T11:14:28.681Z,25.42
2018-09-17T11:16:56.694Z,25.40
2018-09-17T11:19:24.545Z,25.36
2018-09-17T11:21:52.337Z,25.42
2018-09-17T11:24:20.050Z,25.41
2018-09-17T11:26:47.424Z,25.43
2018-09-17T11:29:15.195Z,25.40
2018-09-17T11:31:42.967Z,25.43
2018-09-17T11:34:10.717Z,25.41
2018-09-17T11:36:38.940Z,25.41
2018-09-17T11:39:09.002Z,25.40
2018-09-17T11:41:37.001Z,25.45
2018-09-17T11:44:04.809Z,25.43
2018-09-17T11:46:32.069Z,25.44
2018-09-17T11:48:59.881Z,25.42
2018-09-17T11:51:27.709Z,25.43
2018-09-17T11:53:55.695Z,25.43
2018-09-17T11:56:23.506Z,25.39
2018-09-17T11:58:51.289Z,25.40
2018-09-17T12:04:26.728Z,25.49
2018-09-17T12:07:00.689Z,25.49
2018-09-17T12:09:29.232Z,25.48
2018-09-17T12:11:57.376Z,25.45
2018-09-17T12:14:26.003Z,25.47
2018-09-17T12:16:54.633Z,25.46
2018-09-17T12:19:22.913Z,25.44
2018-09-17T12:21:51.332Z,25.46
2018-09-17T12:24:19.639Z,25.46
2018-09-17T12:26:48.188Z,25.44
2018-09-17T12:29:16.471Z,25.47
2018-09-17T12:31:44.663Z,25.46
2018-09-17T12:34:12.919Z,25.50
2018-09-17T12:36:40.575Z,25.47
2018-09-17T12:39:09.987Z,25.49
2018-09-17T12:41:37.576Z,25.51
2018-09-17T12:44:05.657Z,25.50
2018-09-17T12:46:33.963Z,25.56
2018-09-17T12:49:02.048Z,25.53
2018-09-17T12:51:30.387Z,25.52
2018-09-17T12:53:58.907Z,25.54
2018-09-17T12:56:26.605Z,25.54
2018-09-17T12:58:54.939Z,25.52
2018-09-17T13:01:23.324Z,25.51
2018-09-17T13:03:51.609Z,25.56
2018-09-17T13:06:19.765Z,25.57
2018-09-17T13:08:48.338Z,25.57
2018-09-17T13:11:16.782Z,25.56
2018-09-17T13:13:44.892Z,25.52
2018-09-17T13:16:13.193Z,25.56
2018-09-17T13:18:41.493Z,25.59
2018-09-17T13:21:09.882Z,25.55
2018-09-17T13:23:38.338Z,25.57
2018-09-17T13:26:06.591Z,25.60
2018-09-17T13:28:34.570Z,25.60
2018-09-17T13:31:02.772Z,25.79
2018-09-17T13:33:31.473Z,25.71
2018-09-17T13:36:00.015Z,25.68
2018-09-17T13:38:28.902Z,25.71
2018-09-17T13:40:57.332Z,25.67
2018-09-17T13:43:25.638Z,25.69
2018-09-17T13:45:53.966Z,25.70
2018-09-17T13:48:22.333Z,25.61
2018-09-17T13:50:50.838Z,25.67
2018-09-17T13:53:19.317Z,25.59
2018-09-17T13:55:47.627Z,25.74
2018-09-17T13:58:15.890Z,25.83
2018-09-17T14:00:43.572Z,25.77
2018-09-17T14:03:12.624Z,25.85
2018-09-17T14:05:43.060Z,25.85
2018-09-17T14:08:11.893Z,25.84
2018-09-17T14:10:40.379Z,25.85
2018-09-17T14:13:08.648Z,25.85
2018-09-17T14:15:37.231Z,25.83
2018-09-17T14:18:05.347Z,25.83
2018-09-17T14:20:34.402Z,25.84
2018-09-17T14:23:02.728Z,25.92
2018-09-17T14:25:31.112Z,25.94
2018-09-17T14:27:59.613Z,25.99
2018-09-17T14:30:28.333Z,25.96
2018-09-17T14:33:02.591Z,25.94
2018-09-17T14:35:30.836Z,25.92
2018-09-17T14:37:58.647Z,26.00
2018-09-17T14:40:27.224Z,26.00
2018-09-17T14:42:55.664Z,26.00
2018-09-17T14:45:24.061Z,26.02
2018-09-17T14:47:52.901Z,26.04
2018-09-17T14:50:21.242Z,26.02
2018-09-17T14:52:49.466Z,26.00
2018-09-17T14:55:17.932Z,25.98
2018-09-17T14:57:46.490Z,26.01
2018-09-17T15:00:14.899Z,25.98
2018-09-17T15:02:43.236Z,25.98
2018-09-17T15:05:11.607Z,25.98
2018-09-17T15:07:40.281Z,25.96
2018-09-17T15:10:08.631Z,26.02
2018-09-17T15:12:36.863Z,26.02
2018-09-17T15:15:05.368Z,26.03
2018-09-17T15:17:33.837Z,26.03
2018-09-17T15:20:02.931Z,26.04
2018-09-17T15:22:31.293Z,26.00
2018-09-17T15:24:58.853Z,26.03
2018-09-17T15:27:27.240Z,26.00
2018-09-17T15:29:55.577Z,26.03
2018-09-17T15:32:23.967Z,26.05
2018-09-17T15:35:12.820Z,25.96
2018-09-17T15:37:41.438Z,25.98
2018-09-17T15:40:09.300Z,26.07
2018-09-17T15:42:37.067Z,26.05
2018-09-17T15:45:05.060Z,26.09
2018-09-17T15:47:32.991Z,26.06
2018-09-17T15:50:00.439Z,26.01
2018-09-17T15:52:28.331Z,26.09
2018-09-17T15:54:56.485Z,26.06
2018-09-17T15:57:24.301Z,26.06
2018-09-17T15:59:52.014Z,26.08
2018-09-17T16:02:19.794Z,26.08
2018-09-17T16:04:47.903Z,26.06
2018-09-17T16:07:15.937Z,26.06
2018-09-17T16:09:43.211Z,26.05
2018-09-17T16:12:10.986Z,26.07
2018-09-17T16:14:38.850Z,26.07
2018-09-17T16:17:06.076Z,26.03
2018-09-17T16:19:34.018Z,26.03
2018-09-17T16:22:01.481Z,26.04
2018-09-17T16:24:29.209Z,25.99
2018-09-17T16:26:56.857Z,25.97
2018-09-17T16:29:24.704Z,26.02
2018-09-17T16:31:53.985Z,26.01
2018-09-17T16:34:21.308Z,25.97
2018-09-17T16:36:49.000Z,25.98
2018-09-17T16:39:16.841Z,25.98
2018-09-17T16:41:44.846Z,26.05
2018-09-17T16:44:12.614Z,26.07
2018-09-17T16:46:40.609Z,26.00
2018-09-17T16:49:08.586Z,25.98
2018-09-17T16:51:36.698Z,25.99
2018-09-17T16:54:08.289Z,26.03
2018-09-17T16:56:36.206Z,26.02
2018-09-17T16:59:03.998Z,25.99
2018-09-17T17:01:31.691Z,26.00
2018-09-17T17:03:59.489Z,26.00
2018-09-17T17:07:38.334Z,25.95
2018-09-17T17:10:06.226Z,25.93
2018-09-17T17:12:34.028Z,25.96
2018-09-17T17:15:01.865Z,25.92
2018-09-17T17:17:29.698Z,25.87
2018-09-17T17:20:00.050Z,25.95
2018-09-17T17:22:28.877Z,26.01
2018-09-17T17:24:58.391Z,25.99
2018-09-17T17:27:27.711Z,25.86
2018-09-17T17:29:56.909Z,25.90
2018-09-17T17:32:24.769Z,25.79
2018-09-17T17:34:54.357Z,25.68
2018-09-17T17:37:23.660Z,25.83
2018-09-17T17:39:53.433Z,25.90
2018-09-17T17:42:23.425Z,26.06
2018-09-17T17:44:54.424Z,26.00
2018-09-17T17:47:23.889Z,26.01
2018-09-17T17:49:54.615Z,25.96
2018-09-17T17:52:24.364Z,25.83
2018-09-17T17:54:54.919Z,25.75
2018-09-17T17:57:23.619Z,25.58
2018-09-17T17:59:53.444Z,25.64
2018-09-17T18:02:23.006Z,25.60
2018-09-17T18:04:51.776Z,25.61
2018-09-17T18:07:23.766Z,25.62
2018-09-17T18:09:54.726Z,25.54
2018-09-17T18:12:25.227Z,25.54
2018-09-17T18:14:58.134Z,25.55
2018-09-17T18:17:31.332Z,25.54
2018-09-17T18:20:04.676Z,25.57
2018-09-17T18:22:34.567Z,25.46
2018-09-17T18:25:04.683Z,25.47
2018-09-17T18:27:33.379Z,25.41
2018-09-17T18:30:07.776Z,25.41
2018-09-17T18:32:38.486Z,25.35
2018-09-17T18:35:14.223Z,25.36
2018-09-17T18:37:42.906Z,25.46
2018-09-17T18:40:11.897Z,25.47
2018-09-17T18:42:40.927Z,25.44
2018-09-17T18:45:11.896Z,25.57
2018-09-17T18:47:40.561Z,25.77
2018-09-17T18:50:10.362Z,25.87
2018-09-17T18:52:39.805Z,25.94
2018-09-17T18:55:11.739Z,25.95
2018-09-17T18:57:39.880Z,25.92
2018-09-17T19:00:09.638Z,25.93
2018-09-17T19:02:38.535Z,25.92
2018-09-17T19:05:14.222Z,25.94
2018-09-17T19:07:42.786Z,25.64
2018-09-17T19:10:12.364Z,25.70
2018-09-17T19:12:41.979Z,25.68
2018-09-17T19:15:15.879Z,25.68
2018-09-17T19:17:44.382Z,25.85
2018-09-17T19:20:12.653Z,25.88
2018-09-17T19:22:46.084Z,25.85
2018-09-17T19:25:14.966Z,25.78
2018-09-17T19:27:48.488Z,25.79
2018-09-17T19:30:16.732Z,25.76
2018-09-17T19:32:45.018Z,25.70
2018-09-17T19:35:12.930Z,25.93
2018-09-17T19:37:46.636Z,26.04
2018-09-17T19:40:16.080Z,26.00
2018-09-17T19:42:44.582Z,26.00
2018-09-17T19:45:18.029Z,26.19
2018-09-17T19:47:45.559Z,26.14
2018-09-17T19:50:19.264Z,26.10
2018-09-17T19:52:47.218Z,26.11
2018-09-17T19:55:15.030Z,26.04
2018-09-17T19:57:49.218Z,26.03
2018-09-17T20:00:17.056Z,25.88
2018-09-17T20:02:44.850Z,26.07
2018-09-17T20:05:19.496Z,26.08
2018-09-17T20:07:47.465Z,26.02
2018-09-17T20:10:15.219Z,25.85
2018-09-17T20:12:43.320Z,25.83
2018-09-17T20:15:11.191Z,25.89
2018-09-17T20:17:39.066Z,25.82
2018-09-17T20:20:07.064Z,25.87
2018-09-17T20:22:34.908Z,25.83
2018-09-17T20:25:02.341Z,26.08
2018-09-17T20:27:30.053Z,26.19
2018-09-17T20:29:57.846Z,26.11
2018-09-17T20:32:26.560Z,26.16
2018-09-17T20:34:54.555Z,26.23
2018-09-17T20:40:05.192Z,26.25
2018-09-17T20:42:33.332Z,26.13
2018-09-17T20:45:01.202Z,26.20
2018-09-17T20:47:28.882Z,26.19
2018-09-17T20:49:57.069Z,26.28
2018-09-17T20:52:24.510Z,26.28
2018-09-17T20:54:52.655Z,26.30
2018-09-17T20:57:20.610Z,26.17
2018-09-17T20:59:48.499Z,26.20
2018-09-17T21:02:16.455Z,26.16
2018-09-17T21:04:44.410Z,26.21
2018-09-17T21:07:12.563Z,26.14
2018-09-17T21:09:40.509Z,26.09
2018-09-17T21:12:08.244Z,26.11
2018-09-17T21:14:36.009Z,26.06
2018-09-17T21:17:04.302Z,26.01
2018-09-17T21:19:32.156Z,26.15
2018-09-17T21:21:59.911Z,26.19
2018-09-17T21:24:27.356Z,26.12
2018-09-17T21:26:55.301Z,26.15
2018-09-17T21:29:23.026Z,26.18
2018-09-17T21:31:50.779Z,26.18
2018-09-17T21:34:18.689Z,26.24
2018-09-17T21:36:46.601Z,26.06
2018-09-17T21:39:14.809Z,26.08
2018-09-17T21:41:42.684Z,26.06
2018-09-17T21:44:10.800Z,26.01
2018-09-17T21:46:38.811Z,26.12
2018-09-17T21:49:06.659Z,26.17
2018-09-17T21:51:34.413Z,26.12
2018-09-17T21:54:02.267Z,26.15
2018-09-17T21:56:30.190Z,26.21
2018-09-17T21:58:57.933Z,26.14
2018-09-17T22:01:25.705Z,26.15
2018-09-17T22:03:53.754Z,26.15
2018-09-17T22:06:21.820Z,25.83
2018-09-17T22:08:49.709Z,26.11
2018-09-17T22:11:17.705Z,26.11
2018-09-17T22:13:45.637Z,26.09
2018-09-17T22:16:13.506Z,26.13
2018-09-17T22:18:41.220Z,26.14
2018-09-17T22:21:09.098Z,26.11
2018-09-17T22:23:37.178Z,26.11
2018-09-17T22:26:05.198Z,26.17
2018-09-17T22:28:33.302Z,26.06
2018-09-17T22:31:01.369Z,26.02
2018-09-17T22:33:29.206Z,26.00
2018-09-17T22:35:57.582Z,25.98
2018-09-17T22:38:25.533Z,25.97
2018-09-17T22:40:53.614Z,25.94
2018-09-17T22:43:21.586Z,25.93
2018-09-17T22:45:49.461Z,25.90
2018-09-17T22:48:17.437Z,25.93
2018-09-17T22:50:45.467Z,25.92
2018-09-17T22:53:13.200Z,25.91
2018-09-17T22:55:41.356Z,25.92
2018-09-17T22:58:09.050Z,25.88
2018-09-17T23:00:36.802Z,25.89
2018-09-17T23:03:04.694Z,25.87
2018-09-17T23:05:33.985Z,25.84
2018-09-17T23:08:01.595Z,25.85
2018-09-17T23:10:29.314Z,25.84
2018-09-17T23:12:57.001Z,25.81
2018-09-17T23:15:24.304Z,25.82
2018-09-17T23:17:51.993Z,25.78
2018-09-17T23:20:19.921Z,25.81
2018-09-17T23:22:47.755Z,25.82
2018-09-17T23:25:15.591Z,25.81
2018-09-17T23:27:43.461Z,25.79
2018-09-17T23:30:11.482Z,25.78
2018-09-17T23:32:39.305Z,25.82
2018-09-17T23:35:07.046Z,25.78
2018-09-17T23:37:34.981Z,25.76
2018-09-17T23:40:02.778Z,25.76
2018-09-17T23:42:30.657Z,25.74
2018-09-17T23:44:58.308Z,25.75
2018-09-17T23:47:26.181Z,25.74
2018-09-17T23:49:54.038Z,25.75
2018-09-17T23:52:21.516Z,25.75
2018-09-17T23:54:49.501Z,25.73
2018-09-17T23:57:17.207Z,25.72
2018-09-17T23:59:45.422Z,25.75
